»·PEaware :: N16RD KSAN-KNFG

N16RD :: KSAN-KNFG

FLIGHT INFORMATION

Flight Status: Arrived
Operator: Privately registered:
United States
More flights under this callsign
Pilot: Brett B. (12105)
Aircraft: CESSNA 152 AEROBAT
(C152)
More flights by this aircraft type
Origin: KSAN San Diego Intl-Lindbergh
United States
Destination: KNFG Camp Pendleton MCAS
United States
More flights between these airports :: More routes between these airports
Route: +
File this flight plan on PilotEdge
Remarks:
Altitude:
(Current/Filed)
2,500ft
Speed:
(Current/Filed)
0kts
Departed: 14-Jul-18 05:07 PM
Arrived: 14-Jul-18 05:35 PM
Distance/Time
Traveled:
35nm/0:28
Distance/Time
To Go:
Arrived

Flight Plot

Page will automatically refresh every two minutes.

Flight plan parsing failed; only flown route is shown


Map Options




Map Legend


Flown Route
Filed Route
Departure Airport
Arrival Airport
Navaid (VOR, NDB)
Fix

Horizontal Profiles

Position Reports

Time Latitude Longitude Heading Altitude Ground
Speed
14-Jul-18 16:55 32.733055 -117.180769 15 18ft 0kts
14-Jul-18 16:56 32.733055 -117.180769 15 18ft 0kts
14-Jul-18 16:57 32.733055 -117.180769 15 18ft 0kts
14-Jul-18 16:58 32.733055 -117.180769 15 18ft 0kts
14-Jul-18 16:59 32.733002 -117.180646 171 18ft 4kts
14-Jul-18 17:00 32.732664 -117.180643 141 18ft 6kts
14-Jul-18 17:01 32.731776 -117.177266 104 18ft 13kts
14-Jul-18 17:02 32.730883 -117.175297 178 18ft 0kts
14-Jul-18 17:03 32.730883 -117.175297 178 18ft 0kts
14-Jul-18 17:04 32.730881 -117.175297 176 18ft 0kts
14-Jul-18 17:05 32.730792 -117.175311 195 18ft 3kts
14-Jul-18 17:06 32.730337 -117.176400 287 18ft 0kts
14-Jul-18 17:07 32.730338 -117.176402 289 18ft 0kts
14-Jul-18 17:08 32.733232 -117.188966 282 155ft 74kts
14-Jul-18 17:09 32.741605 -117.215831 295 629ft 88kts
14-Jul-18 17:10 32.760021 -117.235433 322 1109ft 93kts
14-Jul-18 17:11 32.781832 -117.253480 318 1418ft 95kts
14-Jul-18 17:12 32.803039 -117.274429 335 1522ft 105kts
14-Jul-18 17:13 32.831586 -117.280493 354 1606ft 105kts
14-Jul-18 17:14 32.860847 -117.282182 350 1668ft 105kts
14-Jul-18 17:15 32.887841 -117.291045 347 1745ft 99kts
14-Jul-18 17:16 32.914571 -117.298133 346 1769ft 98kts
14-Jul-18 17:17 32.941505 -117.307813 342 1730ft 102kts
14-Jul-18 17:18 32.968567 -117.319246 338 1700ft 103kts
14-Jul-18 17:19 32.995456 -117.331516 341 1675ft 103kts
14-Jul-18 17:20 33.023163 -117.340431 346 1653ft 103kts
14-Jul-18 17:21 33.051216 -117.347054 348 1686ft 98kts
14-Jul-18 17:22 33.078482 -117.352960 350 1720ft 99kts
14-Jul-18 17:23 33.103083 -117.366621 325 1745ft 99kts
14-Jul-18 17:24 33.127857 -117.380923 341 1754ft 99kts
14-Jul-18 17:25 33.154359 -117.388621 350 1776ft 97kts
14-Jul-18 17:26 33.181137 -117.385601 13 1771ft 97kts
14-Jul-18 17:27 33.207504 -117.377634 13 1785ft 98kts
14-Jul-18 17:28 33.234532 -117.369681 9 1773ft 101kts
14-Jul-18 17:29 33.262392 -117.361356 27 1747ft 107kts
14-Jul-18 17:30 33.283628 -117.337049 48 1772ft 105kts
14-Jul-18 17:31 33.302299 -117.309858 53 1793ft 105kts
14-Jul-18 17:32 33.321415 -117.283185 24 1773ft 109kts
14-Jul-18 17:33 33.338039 -117.300253 253 1460ft 94kts
14-Jul-18 17:34 33.328760 -117.323513 224 761ft 63kts
14-Jul-18 17:35 33.316427 -117.337721 219 278ft 60kts
14-Jul-18 17:36 33.305023 -117.350835 216 81ft 37kts
14-Jul-18 17:37 33.304308 -117.351711 218 81ft 0kts
14-Jul-18 17:38 33.303391 -117.351221 96 81ft 6kts
14-Jul-18 17:39 33.303802 -117.348456 59 81ft 7kts
14-Jul-18 17:40 33.304014 -117.347896 62 81ft 0kts
14-Jul-18 17:41 33.304967 -117.345835 59 81ft 0kts
14-Jul-18 17:42 33.304967 -117.345835 59 81ft 0kts
14-Jul-18 17:43 33.304967 -117.345835 59 81ft 0kts
14-Jul-18 17:44 33.304967 -117.345835 59 81ft 0kts
14-Jul-18 17:45 33.304967 -117.345835 59 81ft 0kts
14-Jul-18 17:46 33.304967 -117.345835 59 81ft 0kts
14-Jul-18 17:47 33.304967 -117.345835 59 81ft 0kts
14-Jul-18 17:48 33.304967 -117.345835 59 81ft 0kts
14-Jul-18 17:49 33.304967 -117.345835 59 81ft 0kts
14-Jul-18 17:50 33.304967 -117.345835 59 81ft 0kts
14-Jul-18 17:51 33.304967 -117.345835 59 81ft 0kts

Navigation Log

Ident Type
Flight plan parsing failed, navigation log unavailable